sensor_id;sensor_type;location;lat;lon;timestamp;pressure;altitude;pressure_sealevel;temperature;humidity
56052;BME280;41919;42.648;23.384;2022-09-09T00:01:14;94821.28;;;20.30;59.78
56052;BME280;41919;42.648;23.384;2022-09-09T00:03:44;94812.31;;;20.36;59.34
56052;BME280;41919;42.648;23.384;2022-09-09T00:06:23;94809.91;;;20.40;59.50
56052;BME280;41919;42.648;23.384;2022-09-09T00:11:44;94807.50;;;20.33;60.31
56052;BME280;41919;42.648;23.384;2022-09-09T00:17:36;94799.97;;;20.10;61.01
56052;BME280;41919;42.648;23.384;2022-09-09T00:20:36;94808.78;;;19.78;62.29
56052;BME280;41919;42.648;23.384;2022-09-09T00:23:27;94801.13;;;19.49;63.23
56052;BME280;41919;42.648;23.384;2022-09-09T00:31:32;94768.63;;;18.50;65.69
56052;BME280;41919;42.648;23.384;2022-09-09T00:34:03;94773.41;;;18.26;67.28
56052;BME280;41919;42.648;23.384;2022-09-09T00:36:31;94774.03;;;17.94;68.53
56052;BME280;41919;42.648;23.384;2022-09-09T00:39:00;94763.09;;;17.69;69.76
56052;BME280;41919;42.648;23.384;2022-09-09T00:44:31;94765.44;;;17.48;71.17
56052;BME280;41919;42.648;23.384;2022-09-09T00:52:44;94767.28;;;17.31;72.68
56052;BME280;41919;42.648;23.384;2022-09-09T00:55:19;94769.38;;;17.29;72.66
56052;BME280;41919;42.648;23.384;2022-09-09T00:57:51;94763.94;;;17.18;72.92
56052;BME280;41919;42.648;23.384;2022-09-09T01:03:08;94765.38;;;17.26;72.95
56052;BME280;41919;42.648;23.384;2022-09-09T01:05:46;94767.59;;;17.17;73.04
56052;BME280;41919;42.648;23.384;2022-09-09T01:10:50;94753.38;;;17.18;72.92
56052;BME280;41919;42.648;23.384;2022-09-09T01:13:24;94768.72;;;17.21;72.62
56052;BME280;41919;42.648;23.384;2022-09-09T01:15:50;94725.75;;;16.92;72.74
56052;BME280;41919;42.648;23.384;2022-09-09T01:18:21;94727.09;;;16.95;72.62
56052;BME280;41919;42.648;23.384;2022-09-09T01:26:38;94772.34;;;17.32;72.05
56052;BME280;41919;42.648;23.384;2022-09-09T01:29:22;94709.00;;;16.87;72.48
56052;BME280;41919;42.648;23.384;2022-09-09T01:34:20;94764.81;;;17.24;72.61
56052;BME280;41919;42.648;23.384;2022-09-09T01:37:09;94746.47;;;17.17;72.20
56052;BME280;41919;42.648;23.384;2022-09-09T01:39:36;94633.88;;;16.43;72.36
56052;BME280;41919;42.648;23.384;2022-09-09T01:42:05;94743.91;;;17.05;71.67
56052;BME280;41919;42.648;23.384;2022-09-09T01:44:32;94738.16;;;17.09;72.04
56052;BME280;41919;42.648;23.384;2022-09-09T01:46:57;94725.19;;;17.07;71.30
56052;BME280;41919;42.648;23.384;2022-09-09T01:49:23;94758.94;;;17.39;70.84
56052;BME280;41919;42.648;23.384;2022-09-09T01:51:54;94727.66;;;17.14;71.05
56052;BME280;41919;42.648;23.384;2022-09-09T01:54:22;94728.53;;;17.19;70.77
56052;BME280;41919;42.648;23.384;2022-09-09T02:00:09;94792.72;;;17.54;70.29
56052;BME280;41919;42.648;23.384;2022-09-09T02:08:00;94788.75;;;17.51;70.00
56052;BME280;41919;42.648;23.384;2022-09-09T02:11:05;94787.13;;;17.50;70.10
56052;BME280;41919;42.648;23.384;2022-09-09T02:13:33;94782.81;;;17.44;70.46
56052;BME280;41919;42.648;23.384;2022-09-09T02:16:14;94794.72;;;17.47;71.00
56052;BME280;41919;42.648;23.384;2022-09-09T02:21:29;94779.63;;;17.42;71.23
56052;BME280;41919;42.648;23.384;2022-09-09T02:23:58;94712.31;;;16.94;71.75
56052;BME280;41919;42.648;23.384;2022-09-09T02:26:25;94704.19;;;16.83;72.03
56052;BME280;41919;42.648;23.384;2022-09-09T02:28:55;94700.81;;;16.71;72.40
56052;BME280;41919;42.648;23.384;2022-09-09T02:31:24;94708.78;;;16.59;72.83
56052;BME280;41919;42.648;23.384;2022-09-09T02:33:58;94706.78;;;16.50;73.39
56052;BME280;41919;42.648;23.384;2022-09-09T02:36:29;94767.88;;;16.87;73.18
56052;BME280;41919;42.648;23.384;2022-09-09T02:38:56;94779.25;;;16.88;73.23
56052;BME280;41919;42.648;23.384;2022-09-09T02:41:33;94785.44;;;16.93;72.97
56052;BME280;41919;42.648;23.384;2022-09-09T02:44:00;94766.13;;;16.93;73.23
56052;BME280;41919;42.648;23.384;2022-09-09T02:54:28;94791.09;;;17.02;72.67
56052;BME280;41919;42.648;23.384;2022-09-09T02:57:08;94765.66;;;16.96;72.51
56052;BME280;41919;42.648;23.384;2022-09-09T02:59:36;94781.19;;;17.09;72.62
56052;BME280;41919;42.648;23.384;2022-09-09T03:02:02;94788.25;;;17.20;72.08
56052;BME280;41919;42.648;23.384;2022-09-09T03:04:28;94781.94;;;17.38;71.78
56052;BME280;41919;42.648;23.384;2022-09-09T03:06:54;94723.25;;;17.19;70.92
56052;BME280;41919;42.648;23.384;2022-09-09T03:09:19;94783.59;;;17.78;70.18
56052;BME280;41919;42.648;23.384;2022-09-09T03:11:44;94786.16;;;17.90;69.82
56052;BME280;41919;42.648;23.384;2022-09-09T03:14:10;94732.00;;;17.76;69.04
56052;BME280;41919;42.648;23.384;2022-09-09T03:16:36;94688.94;;;17.58;69.32
56052;BME280;41919;42.648;23.384;2022-09-09T03:19:02;94748.72;;;17.98;69.81
56052;BME280;41919;42.648;23.384;2022-09-09T03:21:28;94786.63;;;18.26;70.18
56052;BME280;41919;42.648;23.384;2022-09-09T03:23:53;94735.00;;;18.01;69.72
56052;BME280;41919;42.648;23.384;2022-09-09T03:26:19;94733.78;;;18.09;69.43
56052;BME280;41919;42.648;23.384;2022-09-09T03:28:45;94753.22;;;18.20;69.84
56052;BME280;41919;42.648;23.384;2022-09-09T03:31:11;94776.94;;;18.37;69.81
56052;BME280;41919;42.648;23.384;2022-09-09T03:33:37;94785.16;;;18.35;69.82
56052;BME280;41919;42.648;23.384;2022-09-09T03:36:03;94699.13;;;17.67;70.40
56052;BME280;41919;42.648;23.384;2022-09-09T03:38:28;94750.00;;;17.96;70.96
56052;BME280;41919;42.648;23.384;2022-09-09T03:40:55;94721.72;;;17.79;70.97
56052;BME280;41919;42.648;23.384;2022-09-09T03:43:26;94774.19;;;18.05;71.74
56052;BME280;41919;42.648;23.384;2022-09-09T03:45:52;94792.59;;;18.16;71.68
56052;BME280;41919;42.648;23.384;2022-09-09T03:48:18;94786.06;;;18.24;71.29
56052;BME280;41919;42.648;23.384;2022-09-09T03:50:48;94782.91;;;18.27;70.85
56052;BME280;41919;42.648;23.384;2022-09-09T03:53:15;94792.47;;;18.28;70.50
56052;BME280;41919;42.648;23.384;2022-09-09T03:55:45;94795.47;;;18.15;70.48
56052;BME280;41919;42.648;23.384;2022-09-09T03:58:13;94740.34;;;17.68;71.23
56052;BME280;41919;42.648;23.384;2022-09-09T04:00:38;94796.47;;;18.09;71.18
56052;BME280;41919;42.648;23.384;2022-09-09T04:03:08;94793.47;;;18.22;70.55
56052;BME280;41919;42.648;23.384;2022-09-09T04:05:34;94750.41;;;18.05;70.29
56052;BME280;41919;42.648;23.384;2022-09-09T04:07:59;94806.69;;;18.44;69.32
56052;BME280;41919;42.648;23.384;2022-09-09T04:10:25;94751.38;;;18.20;68.66
56052;BME280;41919;42.648;23.384;2022-09-09T04:12:50;94798.75;;;18.66;68.42
56052;BME280;41919;42.648;23.384;2022-09-09T04:15:16;94735.75;;;18.41;68.13
56052;BME280;41919;42.648;23.384;2022-09-09T04:17:43;94796.91;;;18.94;67.59
56052;BME280;41919;42.648;23.384;2022-09-09T04:20:09;94739.28;;;18.79;66.70
56052;BME280;41919;42.648;23.384;2022-09-09T04:22:37;94739.22;;;18.96;65.74
56052;BME280;41919;42.648;23.384;2022-09-09T04:25:05;94789.84;;;19.32;64.54
56052;BME280;41919;42.648;23.384;2022-09-09T04:27:31;94798.84;;;19.31;64.49
56052;BME280;41919;42.648;23.384;2022-09-09T04:29:57;94791.97;;;19.30;64.24
56052;BME280;41919;42.648;23.384;2022-09-09T04:32:23;94754.75;;;19.14;63.60
56052;BME280;41919;42.648;23.384;2022-09-09T04:34:48;94796.97;;;19.58;63.14
56052;BME280;41919;42.648;23.384;2022-09-09T04:37:14;94746.97;;;19.35;62.27
56052;BME280;41919;42.648;23.384;2022-09-09T04:39:39;94800.06;;;19.83;61.53
56052;BME280;41919;42.648;23.384;2022-09-09T04:42:05;94748.47;;;19.26;61.76
56052;BME280;41919;42.648;23.384;2022-09-09T04:44:30;94765.28;;;19.09;62.52
56052;BME280;41919;42.648;23.384;2022-09-09T04:46:55;94810.25;;;19.04;63.71
56052;BME280;41919;42.648;23.384;2022-09-09T04:49:21;94769.94;;;18.48;64.79
56052;BME280;41919;42.648;23.384;2022-09-09T04:51:49;94803.72;;;18.63;65.26
56052;BME280;41919;42.648;23.384;2022-09-09T04:54:14;94738.22;;;18.03;66.24
56052;BME280;41919;42.648;23.384;2022-09-09T04:56:40;94742.34;;;18.16;66.55
56052;BME280;41919;42.648;23.384;2022-09-09T04:59:07;94782.72;;;18.56;66.34
56052;BME280;41919;42.648;23.384;2022-09-09T05:01:32;94784.63;;;18.83;66.13
56052;BME280;41919;42.648;23.384;2022-09-09T05:03:58;94738.97;;;18.75;64.77
56052;BME280;41919;42.648;23.384;2022-09-09T05:06:24;94724.38;;;18.95;63.64
56052;BME280;41919;42.648;23.384;2022-09-09T05:08:50;94785.75;;;19.84;62.26
56052;BME280;41919;42.648;23.384;2022-09-09T05:11:21;94728.59;;;20.08;60.48
56052;BME280;41919;42.648;23.384;2022-09-09T05:13:48;94728.56;;;20.71;58.07
56052;BME280;41919;42.648;23.384;2022-09-09T05:16:15;94765.00;;;21.38;56.96
56052;BME280;41919;42.648;23.384;2022-09-09T05:18:41;94765.25;;;21.87;55.02
56052;BME280;41919;42.648;23.384;2022-09-09T05:21:13;94769.41;;;22.35;54.01
56052;BME280;41919;42.648;23.384;2022-09-09T05:23:40;94776.50;;;22.55;52.57
56052;BME280;41919;42.648;23.384;2022-09-09T05:26:07;94765.88;;;22.99;51.56
56052;BME280;41919;42.648;23.384;2022-09-09T05:28:34;94707.13;;;22.80;50.70
56052;BME280;41919;42.648;23.384;2022-09-09T05:31:03;94761.13;;;23.65;49.25
56052;BME280;41919;42.648;23.384;2022-09-09T05:33:34;94728.09;;;23.90;48.34
56052;BME280;41919;42.648;23.384;2022-09-09T05:36:05;94709.81;;;24.45;46.44
56052;BME280;41919;42.648;23.384;2022-09-09T05:38:32;94722.56;;;25.11;44.59
56052;BME280;41919;42.648;23.384;2022-09-09T05:41:01;94755.38;;;25.68;43.63
56052;BME280;41919;42.648;23.384;2022-09-09T05:43:28;94708.38;;;25.62;42.75
56052;BME280;41919;42.648;23.384;2022-09-09T05:46:07;94760.41;;;26.44;40.70
56052;BME280;41919;42.648;23.384;2022-09-09T05:48:41;94755.00;;;27.22;39.55
56052;BME280;41919;42.648;23.384;2022-09-09T05:51:10;94779.59;;;28.06;37.56
56052;BME280;41919;42.648;23.384;2022-09-09T05:53:38;94771.63;;;28.89;35.90
56052;BME280;41919;42.648;23.384;2022-09-09T05:56:04;94763.25;;;29.69;34.68
56052;BME280;41919;42.648;23.384;2022-09-09T05:58:31;94746.88;;;30.39;32.92
56052;BME280;41919;42.648;23.384;2022-09-09T06:01:02;94753.97;;;31.03;31.23
56052;BME280;41919;42.648;23.384;2022-09-09T06:03:28;94758.22;;;31.68;30.30
56052;BME280;41919;42.648;23.384;2022-09-09T06:05:57;94763.75;;;32.29;29.62
56052;BME280;41919;42.648;23.384;2022-09-09T06:08:23;94745.53;;;32.63;27.60
56052;BME280;41919;42.648;23.384;2022-09-09T06:10:49;94781.13;;;32.53;28.48
56052;BME280;41919;42.648;23.384;2022-09-09T06:13:14;94732.59;;;30.98;29.82
56052;BME280;41919;42.648;23.384;2022-09-09T06:15:49;94785.91;;;31.64;29.75
56052;BME280;41919;42.648;23.384;2022-09-09T06:18:15;94750.69;;;32.56;28.47
56052;BME280;41919;42.648;23.384;2022-09-09T06:20:56;94729.34;;;30.84;30.11
56052;BME280;41919;42.648;23.384;2022-09-09T06:23:22;94767.06;;;31.14;30.44
56052;BME280;41919;42.648;23.384;2022-09-09T06:25:47;94732.66;;;30.90;30.20
56052;BME280;41919;42.648;23.384;2022-09-09T06:28:14;94736.03;;;31.62;29.89
56052;BME280;41919;42.648;23.384;2022-09-09T06:30:40;94774.81;;;32.49;28.79
56052;BME280;41919;42.648;23.384;2022-09-09T06:33:06;94737.31;;;33.25;27.67
56052;BME280;41919;42.648;23.384;2022-09-09T06:35:31;94760.16;;;34.12;26.63
56052;BME280;41919;42.648;23.384;2022-09-09T06:37:57;94760.44;;;34.70;25.77
56052;BME280;41919;42.648;23.384;2022-09-09T06:40:24;94759.38;;;34.75;25.51
56052;BME280;41919;42.648;23.384;2022-09-09T06:42:49;94764.84;;;34.94;25.32
56052;BME280;41919;42.648;23.384;2022-09-09T06:45:15;94758.22;;;35.11;25.12
56052;BME280;41919;42.648;23.384;2022-09-09T06:47:40;94771.00;;;35.27;24.60
56052;BME280;41919;42.648;23.384;2022-09-09T06:50:07;94762.78;;;35.43;24.49
56052;BME280;41919;42.648;23.384;2022-09-09T06:52:33;94733.25;;;35.22;24.05
56052;BME280;41919;42.648;23.384;2022-09-09T06:54:58;94769.75;;;35.44;23.84
56052;BME280;41919;42.648;23.384;2022-09-09T06:57:24;94751.34;;;33.71;25.41
56052;BME280;41919;42.648;23.384;2022-09-09T06:59:50;94739.59;;;33.79;25.84
56052;BME280;41919;42.648;23.384;2022-09-09T07:02:15;94694.63;;;33.78;25.27
56052;BME280;41919;42.648;23.384;2022-09-09T07:04:41;94749.78;;;34.30;25.28
56052;BME280;41919;42.648;23.384;2022-09-09T07:07:06;94710.06;;;34.22;24.62
56052;BME280;41919;42.648;23.384;2022-09-09T07:09:33;94790.50;;;34.65;24.60
56052;BME280;41919;42.648;23.384;2022-09-09T07:11:58;94756.16;;;33.49;26.24
56052;BME280;41919;42.648;23.384;2022-09-09T07:14:24;94761.31;;;32.49;27.38
56052;BME280;41919;42.648;23.384;2022-09-09T07:16:50;94773.84;;;33.31;26.14
56052;BME280;41919;42.648;23.384;2022-09-09T07:19:15;94777.22;;;33.56;25.28
56052;BME280;41919;42.648;23.384;2022-09-09T07:21:41;94782.66;;;33.56;25.34
56052;BME280;41919;42.648;23.384;2022-09-09T07:24:07;94767.09;;;33.53;25.89
56052;BME280;41919;42.648;23.384;2022-09-09T07:26:36;94778.34;;;33.67;25.29
56052;BME280;41919;42.648;23.384;2022-09-09T07:29:02;94777.03;;;33.20;25.69
56052;BME280;41919;42.648;23.384;2022-09-09T07:31:29;94733.53;;;33.01;26.17
56052;BME280;41919;42.648;23.384;2022-09-09T07:33:59;94773.66;;;33.24;26.19
56052;BME280;41919;42.648;23.384;2022-09-09T07:36:45;94766.69;;;33.10;25.90
56052;BME280;41919;42.648;23.384;2022-09-09T07:39:13;94726.09;;;33.10;25.72
56052;BME280;41919;42.648;23.384;2022-09-09T07:41:44;94730.38;;;32.99;25.95
56052;BME280;41919;42.648;23.384;2022-09-09T07:44:19;94760.56;;;33.13;25.96
56052;BME280;41919;42.648;23.384;2022-09-09T07:46:46;94762.91;;;33.27;26.09
56052;BME280;41919;42.648;23.384;2022-09-09T07:49:13;94759.81;;;33.41;25.60
56052;BME280;41919;42.648;23.384;2022-09-09T07:51:41;94784.16;;;33.53;25.22
56052;BME280;41919;42.648;23.384;2022-09-09T07:54:09;94744.66;;;33.12;25.62
56052;BME280;41919;42.648;23.384;2022-09-09T07:56:35;94784.59;;;33.55;25.61
56052;BME280;41919;42.648;23.384;2022-09-09T07:59:02;94762.47;;;33.66;25.57
56052;BME280;41919;42.648;23.384;2022-09-09T08:01:44;94731.34;;;33.47;25.39
56052;BME280;41919;42.648;23.384;2022-09-09T08:04:12;94755.31;;;33.89;25.06
56052;BME280;41919;42.648;23.384;2022-09-09T08:06:54;94732.53;;;33.62;25.20
56052;BME280;41919;42.648;23.384;2022-09-09T08:09:20;94770.34;;;32.77;26.37
56052;BME280;41919;42.648;23.384;2022-09-09T08:11:47;94770.44;;;30.90;29.42
56052;BME280;41919;42.648;23.384;2022-09-09T08:14:13;94761.34;;;29.79;30.82
56052;BME280;41919;42.648;23.384;2022-09-09T08:16:42;94729.91;;;30.00;30.91
56052;BME280;41919;42.648;23.384;2022-09-09T08:19:08;94775.63;;;30.65;29.86
56052;BME280;41919;42.648;23.384;2022-09-09T08:21:35;94765.38;;;30.79;29.46
56052;BME280;41919;42.648;23.384;2022-09-09T08:24:02;94724.50;;;30.47;29.72
56052;BME280;41919;42.648;23.384;2022-09-09T08:26:38;94760.09;;;30.62;29.74
56052;BME280;41919;42.648;23.384;2022-09-09T08:29:06;94733.88;;;30.41;30.42
56052;BME280;41919;42.648;23.384;2022-09-09T08:31:34;94773.53;;;30.71;30.21
56052;BME280;41919;42.648;23.384;2022-09-09T08:34:01;94726.31;;;30.26;30.61
56052;BME280;41919;42.648;23.384;2022-09-09T08:36:32;94727.84;;;29.97;30.75
56052;BME280;41919;42.648;23.384;2022-09-09T08:38:59;94750.13;;;29.59;32.34
56052;BME280;41919;42.648;23.384;2022-09-09T08:44:04;94769.81;;;28.10;34.58
56052;BME280;41919;42.648;23.384;2022-09-09T08:47:10;94759.84;;;27.88;36.15
56052;BME280;41919;42.648;23.384;2022-09-09T08:52:22;94712.31;;;28.28;36.69
56052;BME280;41919;42.648;23.384;2022-09-09T08:54:49;94727.53;;;28.33;34.57
56052;BME280;41919;42.648;23.384;2022-09-09T08:57:20;94771.91;;;28.62;33.98
56052;BME280;41919;42.648;23.384;2022-09-09T08:59:48;94752.00;;;28.71;33.75
56052;BME280;41919;42.648;23.384;2022-09-09T09:02:21;94746.44;;;28.68;34.04
56052;BME280;41919;42.648;23.384;2022-09-09T09:07:38;94762.56;;;28.19;34.97
56052;BME280;41919;42.648;23.384;2022-09-09T09:16:22;94746.75;;;28.58;34.78
56052;BME280;41919;42.648;23.384;2022-09-09T09:18:51;94758.81;;;28.86;34.27
56052;BME280;41919;42.648;23.384;2022-09-09T09:21:39;94755.50;;;29.07;34.06
56052;BME280;41919;42.648;23.384;2022-09-09T09:24:23;94755.22;;;29.17;33.44
56052;BME280;41919;42.648;23.384;2022-09-09T09:26:51;94745.38;;;28.95;33.35
56052;BME280;41919;42.648;23.384;2022-09-09T09:29:19;94751.50;;;28.78;34.21
56052;BME280;41919;42.648;23.384;2022-09-09T09:31:52;94699.47;;;28.08;34.65
56052;BME280;41919;42.648;23.384;2022-09-09T09:34:19;94757.19;;;27.88;36.09
56052;BME280;41919;42.648;23.384;2022-09-09T09:36:52;94760.22;;;27.64;36.35
56052;BME280;41919;42.648;23.384;2022-09-09T09:39:32;94752.28;;;27.36;37.15
56052;BME280;41919;42.648;23.384;2022-09-09T09:42:17;94738.81;;;27.27;36.94
56052;BME280;41919;42.648;23.384;2022-09-09T09:44:43;94756.38;;;27.33;37.58
56052;BME280;41919;42.648;23.384;2022-09-09T09:47:15;94749.41;;;27.55;37.32
56052;BME280;41919;42.648;23.384;2022-09-09T09:49:57;94739.91;;;27.49;37.38
56052;BME280;41919;42.648;23.384;2022-09-09T09:52:27;94734.03;;;27.69;37.56
56052;BME280;41919;42.648;23.384;2022-09-09T09:54:55;94706.19;;;27.65;37.84
56052;BME280;41919;42.648;23.384;2022-09-09T09:57:30;94675.97;;;27.51;36.61
56052;BME280;41919;42.648;23.384;2022-09-09T10:00:17;94728.16;;;27.90;36.35
56052;BME280;41919;42.648;23.384;2022-09-09T10:02:45;94718.59;;;28.15;36.14
56052;BME280;41919;42.648;23.384;2022-09-09T10:05:24;94713.28;;;28.24;35.50
56052;BME280;41919;42.648;23.384;2022-09-09T10:08:14;94718.38;;;28.43;35.63
56052;BME280;41919;42.648;23.384;2022-09-09T10:13:37;94729.53;;;28.76;35.27
56052;BME280;41919;42.648;23.384;2022-09-09T10:19:00;94695.97;;;28.65;34.82
56052;BME280;41919;42.648;23.384;2022-09-09T10:24:22;94739.06;;;29.00;34.29
56052;BME280;41919;42.648;23.384;2022-09-09T10:48:45;94747.41;;;28.72;35.65
56052;BME280;41919;42.648;23.384;2022-09-09T10:56:44;94730.09;;;28.47;36.42
56052;BME280;41919;42.648;23.384;2022-09-09T10:59:17;94728.19;;;28.47;36.01
56052;BME280;41919;42.648;23.384;2022-09-09T11:02:19;94744.19;;;28.52;35.86
56052;BME280;41919;42.648;23.384;2022-09-09T11:04:48;94690.91;;;27.97;37.01
56052;BME280;41919;42.648;23.384;2022-09-09T11:07:39;94692.81;;;27.96;37.08
56052;BME280;41919;42.648;23.384;2022-09-09T11:10:18;94730.22;;;27.93;36.92
56052;BME280;41919;42.648;23.384;2022-09-09T11:12:47;94693.28;;;27.67;37.13
56052;BME280;41919;42.648;23.384;2022-09-09T11:15:19;94726.19;;;27.82;37.81
56052;BME280;41919;42.648;23.384;2022-09-09T11:17:53;94694.16;;;27.54;37.93
56052;BME280;41919;42.648;23.384;2022-09-09T11:20:20;94721.09;;;27.71;38.27
56052;BME280;41919;42.648;23.384;2022-09-09T11:22:47;94735.31;;;27.49;38.85
56052;BME280;41919;42.648;23.384;2022-09-09T11:25:15;94730.19;;;27.62;38.91
56052;BME280;41919;42.648;23.384;2022-09-09T11:30:24;94707.16;;;27.38;39.27
56052;BME280;41919;42.648;23.384;2022-09-09T11:33:08;94724.50;;;27.63;39.33
56052;BME280;41919;42.648;23.384;2022-09-09T11:38:27;94709.13;;;27.77;38.28
56052;BME280;41919;42.648;23.384;2022-09-09T11:40:59;94698.84;;;27.80;37.90
56052;BME280;41919;42.648;23.384;2022-09-09T11:43:34;94701.28;;;27.90;38.08
56052;BME280;41919;42.648;23.384;2022-09-09T11:46:03;94646.19;;;27.61;38.21
56052;BME280;41919;42.648;23.384;2022-09-09T11:48:34;94687.03;;;27.81;38.97
56052;BME280;41919;42.648;23.384;2022-09-09T11:51:06;94616.00;;;27.02;40.06
56052;BME280;41919;42.648;23.384;2022-09-09T11:53:33;94670.50;;;27.56;39.37
56052;BME280;41919;42.648;23.384;2022-09-09T11:58:36;94614.34;;;27.37;38.85
56052;BME280;41919;42.648;23.384;2022-09-09T12:01:13;94554.97;;;26.98;38.66
56052;BME280;41919;42.648;23.384;2022-09-09T12:03:49;94608.34;;;27.40;38.54
56052;BME280;41919;42.648;23.384;2022-09-09T12:06:41;94660.31;;;27.75;38.90
56052;BME280;41919;42.648;23.384;2022-09-09T12:09:20;94617.06;;;27.46;38.92
56052;BME280;41919;42.648;23.384;2022-09-09T12:11:48;94617.06;;;27.46;39.30
56052;BME280;41919;42.648;23.384;2022-09-09T12:14:39;94648.00;;;27.83;39.06
56052;BME280;41919;42.648;23.384;2022-09-09T12:17:22;94650.13;;;27.95;38.62
56052;BME280;41919;42.648;23.384;2022-09-09T12:19:59;94654.25;;;28.01;38.42
56052;BME280;41919;42.648;23.384;2022-09-09T12:28:13;94648.88;;;28.01;38.54
56052;BME280;41919;42.648;23.384;2022-09-09T12:31:05;94638.78;;;27.98;38.98
56052;BME280;41919;42.648;23.384;2022-09-09T12:33:35;94633.53;;;28.02;38.96
56052;BME280;41919;42.648;23.384;2022-09-09T12:36:03;94620.28;;;28.05;38.43
56052;BME280;41919;42.648;23.384;2022-09-09T12:38:36;94580.25;;;27.86;38.17
56052;BME280;41919;42.648;23.384;2022-09-09T12:41:02;94576.59;;;27.82;37.93
56052;BME280;41919;42.648;23.384;2022-09-09T12:43:28;94590.88;;;27.91;37.88
56052;BME280;41919;42.648;23.384;2022-09-09T12:46:03;94616.34;;;28.03;38.23
56052;BME280;41919;42.648;23.384;2022-09-09T12:48:47;94615.56;;;28.11;38.62
56052;BME280;41919;42.648;23.384;2022-09-09T12:51:32;94574.56;;;27.88;38.69
56052;BME280;41919;42.648;23.384;2022-09-09T12:53:59;94621.41;;;28.04;39.02
56052;BME280;41919;42.648;23.384;2022-09-09T12:56:30;94625.22;;;28.12;38.71
56052;BME280;41919;42.648;23.384;2022-09-09T12:58:58;94608.31;;;28.11;38.05
56052;BME280;41919;42.648;23.384;2022-09-09T13:01:24;94619.22;;;28.24;38.06
56052;BME280;41919;42.648;23.384;2022-09-09T13:03:51;94604.69;;;28.25;38.63
56052;BME280;41919;42.648;23.384;2022-09-09T13:06:28;94554.34;;;27.82;38.78
56052;BME280;41919;42.648;23.384;2022-09-09T13:08:56;94605.31;;;28.22;38.68
56052;BME280;41919;42.648;23.384;2022-09-09T13:13:55;94592.03;;;28.34;37.96
56052;BME280;41919;42.648;23.384;2022-09-09T13:16:26;94587.94;;;28.45;37.93
56052;BME280;41919;42.648;23.384;2022-09-09T13:18:56;94584.50;;;28.53;37.50
56052;BME280;41919;42.648;23.384;2022-09-09T13:21:31;94588.13;;;28.58;37.08
56052;BME280;41919;42.648;23.384;2022-09-09T13:23:58;94584.19;;;28.64;37.22
56052;BME280;41919;42.648;23.384;2022-09-09T13:26:28;94533.84;;;28.38;37.23
56052;BME280;41919;42.648;23.384;2022-09-09T13:28:55;94570.44;;;28.65;37.32
56052;BME280;41919;42.648;23.384;2022-09-09T13:31:34;94545.88;;;28.67;37.14
56052;BME280;41919;42.648;23.384;2022-09-09T13:34:11;94480.44;;;28.28;37.91
56052;BME280;41919;42.648;23.384;2022-09-09T13:36:38;94564.72;;;28.84;38.03
56052;BME280;41919;42.648;23.384;2022-09-09T13:39:05;94561.56;;;28.73;38.02
56052;BME280;41919;42.648;23.384;2022-09-09T13:41:42;94537.81;;;28.49;38.42
56052;BME280;41919;42.648;23.384;2022-09-09T13:44:27;94521.84;;;28.35;38.55
56052;BME280;41919;42.648;23.384;2022-09-09T13:47:02;94556.97;;;28.48;39.09
56052;BME280;41919;42.648;23.384;2022-09-09T13:49:29;94534.84;;;28.25;39.16
56052;BME280;41919;42.648;23.384;2022-09-09T13:52:15;94512.53;;;28.07;38.90
56052;BME280;41919;42.648;23.384;2022-09-09T13:54:42;94518.69;;;28.07;39.42
56052;BME280;41919;42.648;23.384;2022-09-09T13:57:16;94559.50;;;28.27;39.38
56052;BME280;41919;42.648;23.384;2022-09-09T13:59:43;94544.16;;;28.10;39.53
56052;BME280;41919;42.648;23.384;2022-09-09T14:02:09;94565.34;;;28.11;39.72
56052;BME280;41919;42.648;23.384;2022-09-09T14:04:34;94566.25;;;27.98;39.77
56052;BME280;41919;42.648;23.384;2022-09-09T14:07:00;94548.34;;;27.85;39.69
56052;BME280;41919;42.648;23.384;2022-09-09T14:09:26;94516.56;;;27.61;40.26
56052;BME280;41919;42.648;23.384;2022-09-09T14:11:52;94507.06;;;27.54;39.88
56052;BME280;41919;42.648;23.384;2022-09-09T14:14:17;94480.19;;;27.37;39.95
56052;BME280;41919;42.648;23.384;2022-09-09T14:16:43;94551.66;;;27.82;40.10
56052;BME280;41919;42.648;23.384;2022-09-09T14:19:09;94543.25;;;27.74;40.14
56052;BME280;41919;42.648;23.384;2022-09-09T14:21:35;94543.28;;;27.83;40.02
56052;BME280;41919;42.648;23.384;2022-09-09T14:24:01;94519.09;;;27.66;40.11
56052;BME280;41919;42.648;23.384;2022-09-09T14:26:26;94554.34;;;27.82;40.03
56052;BME280;41919;42.648;23.384;2022-09-09T14:28:53;94542.50;;;27.83;39.49
56052;BME280;41919;42.648;23.384;2022-09-09T14:31:19;94485.44;;;27.51;40.33
56052;BME280;41919;42.648;23.384;2022-09-09T14:33:44;94539.19;;;27.86;40.62
56052;BME280;41919;42.648;23.384;2022-09-09T14:36:11;94512.91;;;27.65;40.83
56052;BME280;41919;42.648;23.384;2022-09-09T14:38:37;94493.94;;;27.53;41.22
56052;BME280;41919;42.648;23.384;2022-09-09T14:41:06;94521.13;;;27.69;41.44
56052;BME280;41919;42.648;23.384;2022-09-09T14:43:31;94521.75;;;27.57;41.61
56052;BME280;41919;42.648;23.384;2022-09-09T14:46:04;94521.91;;;27.52;41.56
56052;BME280;41919;42.648;23.384;2022-09-09T14:48:30;94486.34;;;27.37;41.58
56052;BME280;41919;42.648;23.384;2022-09-09T14:50:56;94489.81;;;27.38;41.62
56052;BME280;41919;42.648;23.384;2022-09-09T14:53:21;94528.06;;;27.52;40.78
56052;BME280;41919;42.648;23.384;2022-09-09T14:55:47;94533.38;;;27.44;41.73
56052;BME280;41919;42.648;23.384;2022-09-09T14:58:12;94541.44;;;27.35;41.61
56052;BME280;41919;42.648;23.384;2022-09-09T15:00:38;94516.25;;;27.22;42.22
56052;BME280;41919;42.648;23.384;2022-09-09T15:03:04;94490.91;;;26.97;41.81
56052;BME280;41919;42.648;23.384;2022-09-09T15:05:29;94502.09;;;26.99;41.91